sensor_id;sensor_type;location;lat;lon;timestamp;P1;durP1;ratioP1;P2;durP2;ratioP2
39410;SDS011;26579;43.238;23.124;2024-03-22T00:00:04;18.85;;;8.68;;
39410;SDS011;26579;43.238;23.124;2024-03-22T00:02:37;22.13;;;8.63;;
39410;SDS011;26579;43.238;23.124;2024-03-22T00:05:03;15.07;;;6.47;;
39410;SDS011;26579;43.238;23.124;2024-03-22T00:07:29;12.55;;;5.97;;
39410;SDS011;26579;43.238;23.124;2024-03-22T00:09:55;13.85;;;6.30;;
39410;SDS011;26579;43.238;23.124;2024-03-22T00:12:22;15.02;;;6.38;;
39410;SDS011;26579;43.238;23.124;2024-03-22T00:14:48;14.07;;;6.60;;
39410;SDS011;26579;43.238;23.124;2024-03-22T00:17:14;14.23;;;6.60;;
39410;SDS011;26579;43.238;23.124;2024-03-22T00:19:39;12.60;;;5.95;;
39410;SDS011;26579;43.238;23.124;2024-03-22T00:22:05;14.15;;;6.13;;
39410;SDS011;26579;43.238;23.124;2024-03-22T00:24:30;12.48;;;6.25;;
39410;SDS011;26579;43.238;23.124;2024-03-22T00:26:56;13.18;;;5.82;;
39410;SDS011;26579;43.238;23.124;2024-03-22T00:29:21;12.25;;;6.30;;
39410;SDS011;26579;43.238;23.124;2024-03-22T00:31:47;14.85;;;7.55;;
39410;SDS011;26579;43.238;23.124;2024-03-22T00:34:13;16.73;;;7.97;;
39410;SDS011;26579;43.238;23.124;2024-03-22T00:36:38;21.65;;;7.93;;
39410;SDS011;26579;43.238;23.124;2024-03-22T00:39:04;14.45;;;7.00;;
39410;SDS011;26579;43.238;23.124;2024-03-22T00:41:29;18.35;;;6.47;;
39410;SDS011;26579;43.238;23.124;2024-03-22T00:43:55;15.05;;;6.70;;
39410;SDS011;26579;43.238;23.124;2024-03-22T00:46:21;14.52;;;6.95;;
39410;SDS011;26579;43.238;23.124;2024-03-22T00:48:46;13.70;;;7.20;;
39410;SDS011;26579;43.238;23.124;2024-03-22T00:51:12;28.02;;;10.45;;
39410;SDS011;26579;43.238;23.124;2024-03-22T00:53:37;17.70;;;8.15;;
39410;SDS011;26579;43.238;23.124;2024-03-22T00:56:03;13.23;;;6.15;;
39410;SDS011;26579;43.238;23.124;2024-03-22T00:58:29;15.98;;;6.40;;
39410;SDS011;26579;43.238;23.124;2024-03-22T01:00:55;12.70;;;5.68;;
39410;SDS011;26579;43.238;23.124;2024-03-22T01:03:21;12.75;;;6.32;;
39410;SDS011;26579;43.238;23.124;2024-03-22T01:05:47;10.93;;;5.32;;
39410;SDS011;26579;43.238;23.124;2024-03-22T01:08:12;23.90;;;6.60;;
39410;SDS011;26579;43.238;23.124;2024-03-22T01:10:38;15.77;;;6.32;;
39410;SDS011;26579;43.238;23.124;2024-03-22T01:13:04;14.75;;;6.55;;
39410;SDS011;26579;43.238;23.124;2024-03-22T01:15:30;11.27;;;5.90;;
39410;SDS011;26579;43.238;23.124;2024-03-22T01:17:55;12.57;;;6.35;;
39410;SDS011;26579;43.238;23.124;2024-03-22T01:20:21;13.40;;;5.65;;
39410;SDS011;26579;43.238;23.124;2024-03-22T01:22:46;14.18;;;6.57;;
39410;SDS011;26579;43.238;23.124;2024-03-22T01:25:12;14.48;;;8.07;;
39410;SDS011;26579;43.238;23.124;2024-03-22T01:27:38;17.77;;;7.70;;
39410;SDS011;26579;43.238;23.124;2024-03-22T01:30:03;14.68;;;8.27;;
39410;SDS011;26579;43.238;23.124;2024-03-22T01:32:29;15.77;;;7.40;;
39410;SDS011;26579;43.238;23.124;2024-03-22T01:34:55;18.40;;;7.28;;
39410;SDS011;26579;43.238;23.124;2024-03-22T01:37:21;10.90;;;6.60;;
39410;SDS011;26579;43.238;23.124;2024-03-22T01:39:46;15.57;;;8.45;;
39410;SDS011;26579;43.238;23.124;2024-03-22T01:42:12;21.65;;;10.02;;
39410;SDS011;26579;43.238;23.124;2024-03-22T01:44:37;30.58;;;12.68;;
39410;SDS011;26579;43.238;23.124;2024-03-22T01:47:03;23.80;;;9.82;;
39410;SDS011;26579;43.238;23.124;2024-03-22T01:49:29;17.20;;;9.38;;
39410;SDS011;26579;43.238;23.124;2024-03-22T01:51:55;16.98;;;8.43;;
39410;SDS011;26579;43.238;23.124;2024-03-22T01:54:21;26.10;;;10.88;;
39410;SDS011;26579;43.238;23.124;2024-03-22T01:56:47;21.65;;;10.15;;
39410;SDS011;26579;43.238;23.124;2024-03-22T01:59:13;20.17;;;9.90;;
39410;SDS011;26579;43.238;23.124;2024-03-22T02:01:39;25.85;;;10.70;;
39410;SDS011;26579;43.238;23.124;2024-03-22T02:04:05;22.30;;;10.80;;
39410;SDS011;26579;43.238;23.124;2024-03-22T02:06:31;20.75;;;10.48;;
39410;SDS011;26579;43.238;23.124;2024-03-22T02:08:56;19.25;;;8.30;;
39410;SDS011;26579;43.238;23.124;2024-03-22T02:11:23;16.10;;;7.50;;
39410;SDS011;26579;43.238;23.124;2024-03-22T02:13:49;10.38;;;6.22;;
39410;SDS011;26579;43.238;23.124;2024-03-22T02:16:15;13.98;;;6.88;;
39410;SDS011;26579;43.238;23.124;2024-03-22T02:18:41;17.05;;;9.10;;
39410;SDS011;26579;43.238;23.124;2024-03-22T02:21:06;18.10;;;8.57;;
39410;SDS011;26579;43.238;23.124;2024-03-22T02:23:32;20.45;;;9.48;;
39410;SDS011;26579;43.238;23.124;2024-03-22T02:25:59;20.80;;;9.45;;
39410;SDS011;26579;43.238;23.124;2024-03-22T02:28:25;17.80;;;9.18;;
39410;SDS011;26579;43.238;23.124;2024-03-22T02:30:50;20.40;;;9.93;;
39410;SDS011;26579;43.238;23.124;2024-03-22T02:33:16;22.75;;;9.60;;
39410;SDS011;26579;43.238;23.124;2024-03-22T02:35:42;17.35;;;9.02;;
39410;SDS011;26579;43.238;23.124;2024-03-22T02:38:07;21.77;;;9.70;;
39410;SDS011;26579;43.238;23.124;2024-03-22T02:40:33;19.05;;;10.70;;
39410;SDS011;26579;43.238;23.124;2024-03-22T02:42:59;27.77;;;13.15;;
39410;SDS011;26579;43.238;23.124;2024-03-22T02:45:24;24.75;;;11.63;;
39410;SDS011;26579;43.238;23.124;2024-03-22T02:47:50;21.45;;;9.70;;
39410;SDS011;26579;43.238;23.124;2024-03-22T02:50:16;14.63;;;7.45;;
39410;SDS011;26579;43.238;23.124;2024-03-22T02:52:41;13.85;;;8.20;;
39410;SDS011;26579;43.238;23.124;2024-03-22T02:55:07;17.63;;;7.53;;
39410;SDS011;26579;43.238;23.124;2024-03-22T02:57:33;14.07;;;6.95;;
39410;SDS011;26579;43.238;23.124;2024-03-22T03:00:00;12.30;;;6.75;;
39410;SDS011;26579;43.238;23.124;2024-03-22T03:02:25;11.98;;;6.32;;
39410;SDS011;26579;43.238;23.124;2024-03-22T03:04:51;12.98;;;7.40;;
39410;SDS011;26579;43.238;23.124;2024-03-22T03:07:17;12.25;;;7.03;;
39410;SDS011;26579;43.238;23.124;2024-03-22T03:09:42;11.70;;;5.80;;
39410;SDS011;26579;43.238;23.124;2024-03-22T03:12:08;14.25;;;6.95;;
39410;SDS011;26579;43.238;23.124;2024-03-22T03:14:33;14.02;;;7.15;;
39410;SDS011;26579;43.238;23.124;2024-03-22T03:16:59;14.90;;;6.78;;
39410;SDS011;26579;43.238;23.124;2024-03-22T03:19:25;18.10;;;7.05;;
39410;SDS011;26579;43.238;23.124;2024-03-22T03:21:50;13.02;;;6.50;;
39410;SDS011;26579;43.238;23.124;2024-03-22T03:24:16;17.65;;;6.70;;
39410;SDS011;26579;43.238;23.124;2024-03-22T03:26:41;15.27;;;6.85;;
39410;SDS011;26579;43.238;23.124;2024-03-22T03:29:07;11.15;;;5.78;;
39410;SDS011;26579;43.238;23.124;2024-03-22T03:31:33;10.10;;;5.07;;
39410;SDS011;26579;43.238;23.124;2024-03-22T03:33:59;15.55;;;5.88;;
39410;SDS011;26579;43.238;23.124;2024-03-22T03:36:25;12.98;;;5.88;;
39410;SDS011;26579;43.238;23.124;2024-03-22T03:38:50;13.20;;;5.85;;
39410;SDS011;26579;43.238;23.124;2024-03-22T03:41:16;12.57;;;6.35;;
39410;SDS011;26579;43.238;23.124;2024-03-22T03:43:42;11.57;;;5.65;;
39410;SDS011;26579;43.238;23.124;2024-03-22T03:46:07;11.57;;;5.38;;
39410;SDS011;26579;43.238;23.124;2024-03-22T03:48:33;16.45;;;8.85;;
39410;SDS011;26579;43.238;23.124;2024-03-22T03:50:59;21.00;;;8.93;;
39410;SDS011;26579;43.238;23.124;2024-03-22T03:53:25;16.65;;;8.43;;
39410;SDS011;26579;43.238;23.124;2024-03-22T03:55:50;12.63;;;6.70;;
39410;SDS011;26579;43.238;23.124;2024-03-22T03:58:16;31.65;;;9.32;;
39410;SDS011;26579;43.238;23.124;2024-03-22T04:00:41;23.50;;;7.90;;
39410;SDS011;26579;43.238;23.124;2024-03-22T04:03:07;23.13;;;8.57;;
39410;SDS011;26579;43.238;23.124;2024-03-22T04:05:33;28.27;;;10.25;;
39410;SDS011;26579;43.238;23.124;2024-03-22T04:07:58;29.70;;;11.30;;
39410;SDS011;26579;43.238;23.124;2024-03-22T04:10:24;28.40;;;13.52;;
39410;SDS011;26579;43.238;23.124;2024-03-22T04:12:49;33.97;;;14.18;;
39410;SDS011;26579;43.238;23.124;2024-03-22T04:15:15;37.42;;;15.90;;
39410;SDS011;26579;43.238;23.124;2024-03-22T04:17:41;36.30;;;15.48;;
39410;SDS011;26579;43.238;23.124;2024-03-22T04:20:06;43.92;;;18.63;;
39410;SDS011;26579;43.238;23.124;2024-03-22T04:22:32;43.00;;;18.73;;
39410;SDS011;26579;43.238;23.124;2024-03-22T04:24:58;62.05;;;24.70;;
39410;SDS011;26579;43.238;23.124;2024-03-22T04:27:23;30.40;;;14.98;;
39410;SDS011;26579;43.238;23.124;2024-03-22T04:29:49;30.02;;;13.73;;
39410;SDS011;26579;43.238;23.124;2024-03-22T04:32:15;27.77;;;14.15;;
39410;SDS011;26579;43.238;23.124;2024-03-22T04:34:43;33.47;;;13.15;;
39410;SDS011;26579;43.238;23.124;2024-03-22T04:37:09;30.45;;;12.70;;
39410;SDS011;26579;43.238;23.124;2024-03-22T04:39:35;33.08;;;14.27;;
39410;SDS011;26579;43.238;23.124;2024-03-22T04:42:01;22.58;;;11.23;;
39410;SDS011;26579;43.238;23.124;2024-03-22T04:44:26;42.05;;;17.73;;
39410;SDS011;26579;43.238;23.124;2024-03-22T04:46:52;69.05;;;30.23;;
39410;SDS011;26579;43.238;23.124;2024-03-22T04:49:18;89.25;;;35.75;;
39410;SDS011;26579;43.238;23.124;2024-03-22T04:51:43;74.35;;;25.95;;
39410;SDS011;26579;43.238;23.124;2024-03-22T04:54:09;70.13;;;28.70;;
39410;SDS011;26579;43.238;23.124;2024-03-22T04:56:34;59.65;;;22.98;;
39410;SDS011;26579;43.238;23.124;2024-03-22T04:59:00;80.85;;;29.92;;
39410;SDS011;26579;43.238;23.124;2024-03-22T05:01:26;104.47;;;36.80;;
39410;SDS011;26579;43.238;23.124;2024-03-22T05:03:51;96.00;;;35.58;;
39410;SDS011;26579;43.238;23.124;2024-03-22T05:06:17;101.50;;;41.17;;
39410;SDS011;26579;43.238;23.124;2024-03-22T05:08:43;155.90;;;55.72;;
39410;SDS011;26579;43.238;23.124;2024-03-22T05:11:09;153.55;;;55.42;;
39410;SDS011;26579;43.238;23.124;2024-03-22T05:13:34;163.25;;;59.17;;
39410;SDS011;26579;43.238;23.124;2024-03-22T05:16:00;109.50;;;44.40;;
39410;SDS011;26579;43.238;23.124;2024-03-22T05:18:25;114.63;;;41.05;;
39410;SDS011;26579;43.238;23.124;2024-03-22T05:20:51;116.07;;;41.20;;
39410;SDS011;26579;43.238;23.124;2024-03-22T05:23:17;53.75;;;27.23;;
39410;SDS011;26579;43.238;23.124;2024-03-22T05:25:42;154.35;;;66.22;;
39410;SDS011;26579;43.238;23.124;2024-03-22T05:28:08;214.70;;;88.30;;
39410;SDS011;26579;43.238;23.124;2024-03-22T05:30:33;202.57;;;87.38;;
39410;SDS011;26579;43.238;23.124;2024-03-22T05:32:59;121.80;;;60.70;;
39410;SDS011;26579;43.238;23.124;2024-03-22T05:35:25;103.18;;;51.58;;
39410;SDS011;26579;43.238;23.124;2024-03-22T05:37:50;101.20;;;49.85;;
39410;SDS011;26579;43.238;23.124;2024-03-22T05:40:16;102.55;;;49.35;;
39410;SDS011;26579;43.238;23.124;2024-03-22T05:42:42;72.50;;;35.10;;
39410;SDS011;26579;43.238;23.124;2024-03-22T05:45:08;48.30;;;24.63;;
39410;SDS011;26579;43.238;23.124;2024-03-22T05:47:34;34.92;;;18.80;;
39410;SDS011;26579;43.238;23.124;2024-03-22T05:49:59;43.58;;;20.67;;
39410;SDS011;26579;43.238;23.124;2024-03-22T05:52:25;32.28;;;15.27;;
39410;SDS011;26579;43.238;23.124;2024-03-22T05:54:51;32.10;;;17.98;;
39410;SDS011;26579;43.238;23.124;2024-03-22T05:57:16;22.65;;;14.35;;
39410;SDS011;26579;43.238;23.124;2024-03-22T05:59:42;29.58;;;17.95;;
39410;SDS011;26579;43.238;23.124;2024-03-22T06:02:08;33.13;;;19.00;;
39410;SDS011;26579;43.238;23.124;2024-03-22T06:04:33;33.17;;;19.10;;
39410;SDS011;26579;43.238;23.124;2024-03-22T06:06:59;36.78;;;18.17;;
39410;SDS011;26579;43.238;23.124;2024-03-22T06:09:26;25.23;;;16.45;;
39410;SDS011;26579;43.238;23.124;2024-03-22T06:11:52;30.80;;;15.32;;
39410;SDS011;26579;43.238;23.124;2024-03-22T06:14:17;26.38;;;15.57;;
39410;SDS011;26579;43.238;23.124;2024-03-22T06:16:43;26.98;;;16.75;;
39410;SDS011;26579;43.238;23.124;2024-03-22T06:19:09;27.77;;;15.85;;
39410;SDS011;26579;43.238;23.124;2024-03-22T06:21:34;21.50;;;12.35;;
39410;SDS011;26579;43.238;23.124;2024-03-22T06:24:00;19.42;;;11.55;;
39410;SDS011;26579;43.238;23.124;2024-03-22T06:26:26;24.70;;;14.10;;
39410;SDS011;26579;43.238;23.124;2024-03-22T06:28:52;19.45;;;10.73;;
39410;SDS011;26579;43.238;23.124;2024-03-22T06:31:17;18.13;;;9.10;;
39410;SDS011;26579;43.238;23.124;2024-03-22T06:33:43;21.25;;;10.90;;
39410;SDS011;26579;43.238;23.124;2024-03-22T06:36:09;19.02;;;10.38;;
39410;SDS011;26579;43.238;23.124;2024-03-22T06:38:34;21.98;;;10.13;;
39410;SDS011;26579;43.238;23.124;2024-03-22T06:41:00;22.27;;;10.75;;
39410;SDS011;26579;43.238;23.124;2024-03-22T06:43:26;18.45;;;10.85;;
39410;SDS011;26579;43.238;23.124;2024-03-22T06:45:51;19.67;;;10.23;;
39410;SDS011;26579;43.238;23.124;2024-03-22T06:48:17;17.90;;;10.18;;
39410;SDS011;26579;43.238;23.124;2024-03-22T06:50:43;16.60;;;10.32;;
39410;SDS011;26579;43.238;23.124;2024-03-22T06:53:08;18.30;;;9.13;;
39410;SDS011;26579;43.238;23.124;2024-03-22T06:55:34;18.52;;;9.60;;
39410;SDS011;26579;43.238;23.124;2024-03-22T06:58:00;21.48;;;10.57;;
39410;SDS011;26579;43.238;23.124;2024-03-22T07:00:25;19.08;;;9.82;;
39410;SDS011;26579;43.238;23.124;2024-03-22T07:02:51;23.33;;;12.68;;
39410;SDS011;26579;43.238;23.124;2024-03-22T07:05:16;17.90;;;9.68;;
39410;SDS011;26579;43.238;23.124;2024-03-22T07:07:42;16.92;;;8.95;;
39410;SDS011;26579;43.238;23.124;2024-03-22T07:10:08;13.98;;;7.82;;
39410;SDS011;26579;43.238;23.124;2024-03-22T07:12:34;15.73;;;7.68;;
39410;SDS011;26579;43.238;23.124;2024-03-22T07:15:00;17.20;;;8.73;;
39410;SDS011;26579;43.238;23.124;2024-03-22T07:17:28;14.43;;;8.63;;
39410;SDS011;26579;43.238;23.124;2024-03-22T07:19:54;15.32;;;8.20;;
39410;SDS011;26579;43.238;23.124;2024-03-22T07:22:20;15.20;;;8.77;;
39410;SDS011;26579;43.238;23.124;2024-03-22T07:24:46;12.10;;;7.55;;
39410;SDS011;26579;43.238;23.124;2024-03-22T07:27:12;13.82;;;8.05;;
39410;SDS011;26579;43.238;23.124;2024-03-22T07:29:38;14.10;;;7.65;;
39410;SDS011;26579;43.238;23.124;2024-03-22T07:32:03;14.15;;;8.60;;
39410;SDS011;26579;43.238;23.124;2024-03-22T07:34:29;17.13;;;8.20;;
39410;SDS011;26579;43.238;23.124;2024-03-22T07:36:55;14.25;;;9.07;;
39410;SDS011;26579;43.238;23.124;2024-03-22T07:39:20;11.80;;;7.57;;
39410;SDS011;26579;43.238;23.124;2024-03-22T07:41:46;13.40;;;7.50;;
39410;SDS011;26579;43.238;23.124;2024-03-22T07:44:12;14.35;;;7.22;;
39410;SDS011;26579;43.238;23.124;2024-03-22T07:46:38;13.45;;;7.03;;
39410;SDS011;26579;43.238;23.124;2024-03-22T07:49:03;11.77;;;7.07;;
39410;SDS011;26579;43.238;23.124;2024-03-22T07:51:29;15.38;;;8.32;;
39410;SDS011;26579;43.238;23.124;2024-03-22T07:53:55;11.73;;;6.45;;
39410;SDS011;26579;43.238;23.124;2024-03-22T07:56:20;11.05;;;6.00;;
39410;SDS011;26579;43.238;23.124;2024-03-22T07:58:46;14.15;;;7.82;;
39410;SDS011;26579;43.238;23.124;2024-03-22T08:01:12;11.15;;;6.60;;
39410;SDS011;26579;43.238;23.124;2024-03-22T08:03:37;12.27;;;6.95;;
39410;SDS011;26579;43.238;23.124;2024-03-22T08:06:03;13.80;;;8.15;;
39410;SDS011;26579;43.238;23.124;2024-03-22T08:08:29;12.30;;;7.63;;
39410;SDS011;26579;43.238;23.124;2024-03-22T08:10:55;10.75;;;6.65;;
39410;SDS011;26579;43.238;23.124;2024-03-22T08:13:20;12.60;;;7.88;;
39410;SDS011;26579;43.238;23.124;2024-03-22T08:15:46;11.48;;;6.38;;
39410;SDS011;26579;43.238;23.124;2024-03-22T08:18:11;14.75;;;8.05;;
39410;SDS011;26579;43.238;23.124;2024-03-22T08:20:37;15.07;;;8.02;;
39410;SDS011;26579;43.238;23.124;2024-03-22T08:23:03;15.20;;;8.13;;
39410;SDS011;26579;43.238;23.124;2024-03-22T08:25:28;10.48;;;6.65;;
39410;SDS011;26579;43.238;23.124;2024-03-22T08:27:54;14.48;;;7.32;;
39410;SDS011;26579;43.238;23.124;2024-03-22T08:30:20;14.18;;;7.50;;
39410;SDS011;26579;43.238;23.124;2024-03-22T08:32:45;12.18;;;7.65;;
39410;SDS011;26579;43.238;23.124;2024-03-22T08:35:11;14.80;;;8.38;;
39410;SDS011;26579;43.238;23.124;2024-03-22T08:37:36;12.68;;;7.57;;
39410;SDS011;26579;43.238;23.124;2024-03-22T08:40:02;12.63;;;7.00;;
39410;SDS011;26579;43.238;23.124;2024-03-22T08:42:28;16.48;;;6.85;;
39410;SDS011;26579;43.238;23.124;2024-03-22T08:44:53;12.45;;;7.47;;
39410;SDS011;26579;43.238;23.124;2024-03-22T08:47:19;11.73;;;7.63;;
39410;SDS011;26579;43.238;23.124;2024-03-22T08:49:45;13.20;;;7.20;;
39410;SDS011;26579;43.238;23.124;2024-03-22T08:52:10;17.08;;;7.40;;
39410;SDS011;26579;43.238;23.124;2024-03-22T08:54:36;11.93;;;6.95;;
39410;SDS011;26579;43.238;23.124;2024-03-22T08:57:01;22.95;;;8.68;;
39410;SDS011;26579;43.238;23.124;2024-03-22T08:59:27;14.63;;;6.82;;
39410;SDS011;26579;43.238;23.124;2024-03-22T09:01:53;11.40;;;6.93;;
39410;SDS011;26579;43.238;23.124;2024-03-22T09:04:19;12.05;;;6.50;;
39410;SDS011;26579;43.238;23.124;2024-03-22T09:06:44;11.73;;;6.70;;
39410;SDS011;26579;43.238;23.124;2024-03-22T09:09:10;10.15;;;6.32;;
39410;SDS011;26579;43.238;23.124;2024-03-22T09:11:36;14.40;;;6.72;;
39410;SDS011;26579;43.238;23.124;2024-03-22T09:14:01;15.10;;;7.40;;
39410;SDS011;26579;43.238;23.124;2024-03-22T09:16:27;11.43;;;6.70;;
39410;SDS011;26579;43.238;23.124;2024-03-22T09:18:52;10.30;;;6.22;;
39410;SDS011;26579;43.238;23.124;2024-03-22T09:21:18;21.30;;;6.47;;
39410;SDS011;26579;43.238;23.124;2024-03-22T09:23:44;12.93;;;7.20;;
39410;SDS011;26579;43.238;23.124;2024-03-22T09:26:09;9.07;;;6.43;;
39410;SDS011;26579;43.238;23.124;2024-03-22T09:28:35;11.75;;;6.82;;
39410;SDS011;26579;43.238;23.124;2024-03-22T09:31:04;11.15;;;5.90;;
39410;SDS011;26579;43.238;23.124;2024-03-22T09:33:30;12.90;;;8.43;;
39410;SDS011;26579;43.238;23.124;2024-03-22T09:35:56;10.25;;;5.90;;
39410;SDS011;26579;43.238;23.124;2024-03-22T09:38:21;10.68;;;6.63;;
39410;SDS011;26579;43.238;23.124;2024-03-22T09:40:47;14.10;;;7.50;;
39410;SDS011;26579;43.238;23.124;2024-03-22T09:43:13;11.48;;;6.57;;
39410;SDS011;26579;43.238;23.124;2024-03-22T09:45:41;13.95;;;6.70;;
39410;SDS011;26579;43.238;23.124;2024-03-22T09:48:08;9.65;;;5.90;;
39410;SDS011;26579;43.238;23.124;2024-03-22T09:50:33;11.05;;;6.38;;
39410;SDS011;26579;43.238;23.124;2024-03-22T09:53:00;9.00;;;5.88;;
39410;SDS011;26579;43.238;23.124;2024-03-22T09:55:28;8.45;;;5.78;;
39410;SDS011;26579;43.238;23.124;2024-03-22T09:57:55;8.23;;;5.50;;
39410;SDS011;26579;43.238;23.124;2024-03-22T10:00:21;7.65;;;5.68;;
39410;SDS011;26579;43.238;23.124;2024-03-22T10:02:47;13.73;;;6.50;;
39410;SDS011;26579;43.238;23.124;2024-03-22T10:05:14;11.35;;;6.35;;
39410;SDS011;26579;43.238;23.124;2024-03-22T10:07:40;8.75;;;6.22;;
39410;SDS011;26579;43.238;23.124;2024-03-22T10:10:06;12.32;;;5.55;;
39410;SDS011;26579;43.238;23.124;2024-03-22T10:12:32;8.75;;;5.90;;
39410;SDS011;26579;43.238;23.124;2024-03-22T10:14:58;13.07;;;5.85;;
39410;SDS011;26579;43.238;23.124;2024-03-22T10:17:25;9.18;;;5.20;;
39410;SDS011;26579;43.238;23.124;2024-03-22T10:19:52;9.20;;;5.47;;
39410;SDS011;26579;43.238;23.124;2024-03-22T10:22:17;8.13;;;5.18;;
39410;SDS011;26579;43.238;23.124;2024-03-22T10:24:43;8.40;;;5.07;;
39410;SDS011;26579;43.238;23.124;2024-03-22T10:27:10;10.63;;;4.80;;
39410;SDS011;26579;43.238;23.124;2024-03-22T10:29:36;8.32;;;5.30;;
39410;SDS011;26579;43.238;23.124;2024-03-22T10:32:02;9.52;;;5.50;;
39410;SDS011;26579;43.238;23.124;2024-03-22T10:34:28;12.18;;;7.63;;
39410;SDS011;26579;43.238;23.124;2024-03-22T10:36:55;10.65;;;6.38;;
39410;SDS011;26579;43.238;23.124;2024-03-22T10:39:21;11.80;;;6.75;;
39410;SDS011;26579;43.238;23.124;2024-03-22T10:41:48;9.55;;;5.82;;
39410;SDS011;26579;43.238;23.124;2024-03-22T10:44:14;10.27;;;5.68;;
39410;SDS011;26579;43.238;23.124;2024-03-22T10:46:44;16.13;;;5.95;;
39410;SDS011;26579;43.238;23.124;2024-03-22T10:49:18;10.15;;;5.50;;
39410;SDS011;26579;43.238;23.124;2024-03-22T10:51:58;8.93;;;5.10;;
39410;SDS011;26579;43.238;23.124;2024-03-22T10:54:27;9.32;;;5.47;;
39410;SDS011;26579;43.238;23.124;2024-03-22T10:57:01;10.18;;;5.88;;
39410;SDS011;26579;43.238;23.124;2024-03-22T10:59:32;15.63;;;5.95;;
39410;SDS011;26579;43.238;23.124;2024-03-22T11:02:02;11.15;;;6.45;;
39410;SDS011;26579;43.238;23.124;2024-03-22T11:04:29;9.13;;;5.38;;
39410;SDS011;26579;43.238;23.124;2024-03-22T11:06:56;11.77;;;5.47;;
39410;SDS011;26579;43.238;23.124;2024-03-22T11:09:22;9.95;;;5.28;;
39410;SDS011;26579;43.238;23.124;2024-03-22T11:11:51;9.13;;;5.38;;
39410;SDS011;26579;43.238;23.124;2024-03-22T11:14:17;7.55;;;4.47;;
39410;SDS011;26579;43.238;23.124;2024-03-22T11:16:43;7.22;;;4.75;;
39410;SDS011;26579;43.238;23.124;2024-03-22T11:19:09;6.80;;;4.30;;
39410;SDS011;26579;43.238;23.124;2024-03-22T11:21:35;12.30;;;5.47;;
39410;SDS011;26579;43.238;23.124;2024-03-22T11:24:01;9.65;;;6.85;;
39410;SDS011;26579;43.238;23.124;2024-03-22T11:26:26;9.00;;;5.32;;
39410;SDS011;26579;43.238;23.124;2024-03-22T11:28:52;10.68;;;6.20;;
39410;SDS011;26579;43.238;23.124;2024-03-22T11:31:18;14.55;;;5.68;;
39410;SDS011;26579;43.238;23.124;2024-03-22T11:33:44;7.70;;;4.70;;
39410;SDS011;26579;43.238;23.124;2024-03-22T11:36:09;10.50;;;6.47;;
39410;SDS011;26579;43.238;23.124;2024-03-22T11:38:35;10.38;;;6.10;;
39410;SDS011;26579;43.238;23.124;2024-03-22T11:41:00;9.65;;;6.40;;
39410;SDS011;26579;43.238;23.124;2024-03-22T11:43:28;7.50;;;4.68;;
39410;SDS011;26579;43.238;23.124;2024-03-22T11:45:54;11.48;;;5.57;;
39410;SDS011;26579;43.238;23.124;2024-03-22T11:48:21;13.98;;;7.32;;
39410;SDS011;26579;43.238;23.124;2024-03-22T11:50:49;10.52;;;5.72;;
39410;SDS011;26579;43.238;23.124;2024-03-22T11:53:15;8.85;;;5.57;;
39410;SDS011;26579;43.238;23.124;2024-03-22T11:55:41;8.77;;;5.38;;
39410;SDS011;26579;43.238;23.124;2024-03-22T11:58:08;8.20;;;5.40;;
39410;SDS011;26579;43.238;23.124;2024-03-22T12:00:37;10.02;;;5.72;;
39410;SDS011;26579;43.238;23.124;2024-03-22T12:03:06;9.43;;;5.22;;
39410;SDS011;26579;43.238;23.124;2024-03-22T12:05:32;10.45;;;5.57;;
39410;SDS011;26579;43.238;23.124;2024-03-22T12:07:58;8.77;;;4.65;;
39410;SDS011;26579;43.238;23.124;2024-03-22T12:10:23;8.02;;;5.38;;
39410;SDS011;26579;43.238;23.124;2024-03-22T12:12:49;6.70;;;4.35;;
39410;SDS011;26579;43.238;23.124;2024-03-22T12:15:15;9.65;;;5.97;;
39410;SDS011;26579;43.238;23.124;2024-03-22T12:17:40;15.05;;;7.85;;
39410;SDS011;26579;43.238;23.124;2024-03-22T12:20:08;9.25;;;5.45;;
39410;SDS011;26579;43.238;23.124;2024-03-22T12:22:34;14.98;;;5.82;;
39410;SDS011;26579;43.238;23.124;2024-03-22T12:25:00;10.57;;;6.15;;
39410;SDS011;26579;43.238;23.124;2024-03-22T12:27:26;9.77;;;5.30;;
39410;SDS011;26579;43.238;23.124;2024-03-22T12:29:51;9.40;;;6.20;;
39410;SDS011;26579;43.238;23.124;2024-03-22T12:32:17;35.40;;;17.65;;
39410;SDS011;26579;43.238;23.124;2024-03-22T12:34:43;10.32;;;5.70;;
39410;SDS011;26579;43.238;23.124;2024-03-22T12:37:09;8.13;;;5.25;;
39410;SDS011;26579;43.238;23.124;2024-03-22T12:39:34;7.97;;;4.57;;
39410;SDS011;26579;43.238;23.124;2024-03-22T12:42:00;11.45;;;5.25;;
39410;SDS011;26579;43.238;23.124;2024-03-22T12:44:26;12.30;;;6.28;;
39410;SDS011;26579;43.238;23.124;2024-03-22T12:46:52;10.30;;;4.55;;
39410;SDS011;26579;43.238;23.124;2024-03-22T12:49:18;10.35;;;6.88;;
39410;SDS011;26579;43.238;23.124;2024-03-22T12:51:43;11.70;;;7.07;;
39410;SDS011;26579;43.238;23.124;2024-03-22T12:54:09;13.27;;;6.63;;
39410;SDS011;26579;43.238;23.124;2024-03-22T12:56:35;12.15;;;6.15;;
39410;SDS011;26579;43.238;23.124;2024-03-22T12:59:01;26.00;;;15.80;;
39410;SDS011;26579;43.238;23.124;2024-03-22T13:01:26;9.98;;;7.18;;
39410;SDS011;26579;43.238;23.124;2024-03-22T13:03:52;11.95;;;6.10;;
39410;SDS011;26579;43.238;23.124;2024-03-22T13:06:17;7.43;;;5.13;;
39410;SDS011;26579;43.238;23.124;2024-03-22T13:08:43;8.43;;;5.13;;
39410;SDS011;26579;43.238;23.124;2024-03-22T13:11:09;14.13;;;6.72;;
39410;SDS011;26579;43.238;23.124;2024-03-22T13:13:35;8.15;;;5.20;;
39410;SDS011;26579;43.238;23.124;2024-03-22T13:16:01;8.65;;;5.50;;
39410;SDS011;26579;43.238;23.124;2024-03-22T13:18:27;6.95;;;4.88;;
39410;SDS011;26579;43.238;23.124;2024-03-22T13:20:52;9.43;;;5.90;;
39410;SDS011;26579;43.238;23.124;2024-03-22T13:23:18;8.18;;;6.00;;
39410;SDS011;26579;43.238;23.124;2024-03-22T13:25:43;10.27;;;6.10;;
39410;SDS011;26579;43.238;23.124;2024-03-22T13:28:09;9.40;;;6.97;;
39410;SDS011;26579;43.238;23.124;2024-03-22T13:30:35;9.13;;;6.60;;
39410;SDS011;26579;43.238;23.124;2024-03-22T13:33:00;12.88;;;6.25;;
39410;SDS011;26579;43.238;23.124;2024-03-22T13:35:26;14.20;;;5.43;;
39410;SDS011;26579;43.238;23.124;2024-03-22T13:37:52;8.30;;;5.40;;
39410;SDS011;26579;43.238;23.124;2024-03-22T13:40:17;8.73;;;5.53;;
39410;SDS011;26579;43.238;23.124;2024-03-22T13:42:43;11.85;;;6.38;;
39410;SDS011;26579;43.238;23.124;2024-03-22T13:45:09;15.18;;;8.32;;
39410;SDS011;26579;43.238;23.124;2024-03-22T13:47:37;12.70;;;6.00;;
39410;SDS011;26579;43.238;23.124;2024-03-22T13:50:04;10.40;;;5.35;;
39410;SDS011;26579;43.238;23.124;2024-03-22T13:52:30;11.90;;;5.85;;
39410;SDS011;26579;43.238;23.124;2024-03-22T13:54:57;9.07;;;5.78;;
39410;SDS011;26579;43.238;23.124;2024-03-22T13:57:23;8.30;;;4.10;;
39410;SDS011;26579;43.238;23.124;2024-03-22T13:59:48;10.93;;;5.72;;
39410;SDS011;26579;43.238;23.124;2024-03-22T14:02:14;12.63;;;5.63;;
39410;SDS011;26579;43.238;23.124;2024-03-22T14:04:39;12.65;;;6.80;;
39410;SDS011;26579;43.238;23.124;2024-03-22T14:07:05;9.30;;;5.43;;
39410;SDS011;26579;43.238;23.124;2024-03-22T14:09:31;8.57;;;5.20;;
39410;SDS011;26579;43.238;23.124;2024-03-22T14:11:57;11.07;;;5.15;;